createdAt,value
2023-01-13T00:00:55.906Z,1.90
2023-01-13T00:01:55.894Z,1.80
2023-01-13T00:02:55.823Z,1.70
2023-01-13T00:03:55.764Z,1.80
2023-01-13T00:04:55.755Z,2.20
2023-01-13T00:05:55.687Z,1.90
2023-01-13T00:06:55.645Z,1.90
2023-01-13T00:07:55.629Z,2.20
2023-01-13T00:08:55.570Z,1.70
2023-01-13T00:09:55.507Z,1.80
2023-01-13T00:10:55.483Z,1.90
2023-01-13T00:11:55.447Z,2.00
2023-01-13T00:12:55.373Z,1.80
2023-01-13T00:13:55.342Z,1.70
2023-01-13T00:14:55.296Z,1.70
2023-01-13T00:15:55.303Z,1.70
2023-01-13T00:16:55.197Z,1.80
2023-01-13T00:17:55.160Z,2.10
2023-01-13T00:18:55.139Z,2.00
2023-01-13T00:19:55.075Z,1.90
2023-01-13T00:20:55.027Z,1.60
2023-01-13T00:21:54.993Z,1.90
2023-01-13T00:22:54.939Z,1.60
2023-01-13T00:23:54.919Z,1.70
2023-01-13T00:24:54.862Z,1.80
2023-01-13T00:25:54.820Z,1.80
2023-01-13T00:26:54.771Z,2.10
2023-01-13T00:27:54.742Z,1.80
2023-01-13T00:28:54.684Z,2.30
2023-01-13T00:29:54.652Z,2.20
2023-01-13T00:30:54.622Z,2.30
2023-01-13T00:31:54.567Z,2.10
2023-01-13T00:32:54.510Z,1.80
2023-01-13T00:33:54.471Z,1.90
2023-01-13T00:34:54.459Z,1.90
2023-01-13T00:35:54.380Z,2.30
2023-01-13T00:36:54.343Z,2.10
2023-01-13T00:37:54.314Z,1.90
2023-01-13T00:38:54.252Z,1.90
2023-01-13T00:39:54.228Z,1.80
2023-01-13T00:40:54.178Z,2.10
2023-01-13T00:41:54.134Z,2.10
2023-01-13T00:42:54.104Z,1.80
2023-01-13T00:43:54.049Z,2.00
2023-01-13T00:44:54.022Z,1.90
2023-01-13T00:45:53.992Z,1.90
2023-01-13T00:46:53.939Z,1.90
2023-01-13T00:47:53.891Z,1.80
2023-01-13T00:48:53.830Z,2.00
2023-01-13T00:49:53.785Z,2.20
2023-01-13T00:50:53.755Z,1.80
2023-01-13T00:51:53.696Z,2.20
2023-01-13T00:52:53.672Z,2.00
2023-01-13T00:53:53.623Z,2.20
2023-01-13T00:54:53.577Z,2.60
2023-01-13T00:55:53.549Z,1.90
2023-01-13T00:56:53.518Z,2.10
2023-01-13T00:57:53.466Z,2.10
2023-01-13T00:58:53.429Z,2.30
2023-01-13T00:59:53.381Z,2.00
2023-01-13T01:00:53.443Z,2.10
2023-01-13T01:01:53.351Z,2.00
2023-01-13T01:02:53.254Z,2.30
2023-01-13T01:03:53.211Z,2.30
2023-01-13T01:04:53.177Z,2.00
2023-01-13T01:05:53.129Z,2.00
2023-01-13T01:06:53.078Z,2.10
2023-01-13T01:07:53.037Z,2.00
2023-01-13T01:08:53.027Z,1.90
2023-01-13T01:09:52.941Z,1.80
2023-01-13T01:10:52.923Z,2.10
2023-01-13T01:11:52.871Z,1.90
2023-01-13T01:12:52.838Z,2.40
2023-01-13T01:13:52.798Z,2.10
2023-01-13T01:14:52.735Z,2.00
2023-01-13T01:15:52.707Z,1.80
2023-01-13T01:16:52.689Z,2.20
2023-01-13T01:17:52.623Z,2.50
2023-01-13T01:18:52.551Z,2.00
2023-01-13T01:19:52.512Z,1.80
2023-01-13T01:20:52.447Z,2.50
2023-01-13T01:21:52.427Z,2.30
2023-01-13T01:22:52.368Z,2.10
2023-01-13T01:23:52.308Z,2.20
2023-01-13T01:24:52.268Z,2.20
2023-01-13T01:25:52.237Z,2.30
2023-01-13T01:26:52.205Z,2.40
2023-01-13T01:27:52.114Z,2.10
2023-01-13T01:28:52.074Z,2.40
2023-01-13T01:29:51.994Z,2.10
2023-01-13T01:30:51.949Z,2.00
2023-01-13T01:31:51.913Z,2.00
2023-01-13T01:32:51.841Z,2.40
2023-01-13T01:33:51.797Z,2.60
2023-01-13T01:34:51.745Z,2.20
2023-01-13T01:35:51.683Z,2.20
2023-01-13T01:36:51.650Z,2.60
2023-01-13T01:37:51.577Z,2.60
2023-01-13T01:38:51.534Z,2.00
2023-01-13T01:39:51.499Z,2.20
2023-01-13T01:40:51.427Z,2.30
2023-01-13T01:41:51.379Z,2.40
2023-01-13T01:42:51.329Z,2.30
2023-01-13T01:43:51.277Z,2.50
2023-01-13T01:44:51.242Z,2.10
2023-01-13T01:45:51.160Z,2.40
2023-01-13T01:46:51.188Z,2.40
2023-01-13T01:47:51.069Z,2.50
2023-01-13T01:48:50.990Z,2.30
2023-01-13T01:49:50.940Z,2.60
2023-01-13T01:50:50.893Z,2.50
2023-01-13T01:51:50.850Z,2.50
2023-01-13T01:52:50.819Z,3.00
2023-01-13T01:53:50.759Z,3.00
2023-01-13T01:54:50.692Z,2.90
2023-01-13T01:55:50.645Z,2.90
2023-01-13T01:56:50.624Z,2.70
2023-01-13T01:57:50.563Z,2.80
2023-01-13T01:58:50.517Z,2.60
2023-01-13T01:59:50.475Z,3.30
2023-01-13T02:00:50.451Z,3.40
2023-01-13T02:01:50.483Z,3.10
2023-01-13T02:02:50.314Z,4.00
2023-01-13T02:03:50.257Z,3.60
2023-01-13T02:04:50.201Z,3.80
2023-01-13T02:05:50.153Z,3.80
2023-01-13T02:06:50.088Z,4.10
2023-01-13T02:07:50.040Z,3.90
2023-01-13T02:08:49.993Z,4.00
2023-01-13T02:09:49.926Z,4.20
2023-01-13T02:10:49.880Z,4.10
2023-01-13T02:11:49.851Z,4.00
2023-01-13T02:12:49.798Z,4.20
2023-01-13T02:13:49.734Z,4.30
2023-01-13T02:14:49.686Z,4.30
2023-01-13T02:15:49.639Z,4.60
2023-01-13T02:16:49.679Z,4.50
2023-01-13T02:17:49.544Z,4.40
2023-01-13T02:18:49.490Z,5.00
2023-01-13T02:19:49.418Z,4.50
2023-01-13T02:20:49.370Z,4.60
2023-01-13T02:21:49.310Z,4.60
2023-01-13T02:22:49.250Z,4.50
2023-01-13T02:23:49.213Z,4.30
2023-01-13T02:24:49.130Z,4.50
2023-01-13T02:25:49.119Z,4.60
2023-01-13T02:26:49.019Z,4.40
2023-01-13T02:27:48.975Z,4.80
2023-01-13T02:28:48.909Z,4.50
2023-01-13T02:29:48.875Z,4.90
2023-01-13T02:30:48.826Z,4.70
2023-01-13T02:31:48.804Z,4.80
2023-01-13T02:32:48.709Z,4.60
2023-01-13T02:33:48.668Z,4.20
2023-01-13T02:34:48.630Z,4.50
2023-01-13T02:35:48.551Z,4.30
2023-01-13T02:36:48.523Z,4.40
2023-01-13T02:37:48.454Z,4.00
2023-01-13T02:38:48.400Z,4.40
2023-01-13T02:39:48.368Z,4.20
2023-01-13T02:40:48.294Z,3.90
2023-01-13T02:41:48.243Z,3.90
2023-01-13T02:42:48.194Z,3.70
2023-01-13T02:43:48.156Z,3.60
2023-01-13T02:44:48.101Z,3.40
2023-01-13T02:45:48.072Z,3.80
2023-01-13T02:46:47.994Z,3.70
2023-01-13T02:47:47.954Z,3.50
2023-01-13T02:48:47.935Z,3.10
2023-01-13T02:49:47.853Z,3.70
2023-01-13T02:50:47.830Z,3.10
2023-01-13T02:51:47.724Z,3.40
2023-01-13T02:52:47.684Z,3.00
2023-01-13T02:53:47.625Z,2.90
2023-01-13T02:54:47.568Z,2.90
2023-01-13T02:55:47.544Z,2.60
2023-01-13T02:56:47.490Z,2.90
2023-01-13T02:57:47.432Z,2.70
2023-01-13T02:58:47.385Z,2.60
2023-01-13T02:59:47.282Z,2.30
2023-01-13T03:00:47.250Z,2.50
2023-01-13T03:01:47.253Z,2.30
2023-01-13T03:02:47.118Z,2.30
2023-01-13T03:03:47.101Z,2.20
2023-01-13T03:04:47.014Z,2.30
2023-01-13T03:05:46.988Z,2.20
2023-01-13T03:06:46.941Z,2.10
2023-01-13T03:07:46.885Z,2.20
2023-01-13T03:08:46.825Z,2.60
2023-01-13T03:09:46.792Z,2.20
2023-01-13T03:10:46.752Z,2.40
2023-01-13T03:11:46.735Z,2.40
2023-01-13T03:12:46.691Z,2.40
2023-01-13T03:13:46.641Z,2.00
2023-01-13T03:14:46.566Z,2.60
2023-01-13T03:15:46.535Z,2.10
2023-01-13T03:16:46.543Z,2.20
2023-01-13T03:17:46.438Z,2.30
2023-01-13T03:18:46.392Z,2.20
2023-01-13T03:19:46.374Z,2.20
2023-01-13T03:20:46.307Z,2.20
2023-01-13T03:21:46.281Z,2.10
2023-01-13T03:22:46.215Z,2.10
2023-01-13T03:23:46.169Z,1.90
2023-01-13T03:24:46.112Z,2.30
2023-01-13T03:25:46.070Z,2.00
2023-01-13T03:26:46.036Z,1.80
2023-01-13T03:27:45.992Z,2.20
2023-01-13T03:28:45.941Z,2.30
2023-01-13T03:29:45.901Z,2.00
2023-01-13T03:30:45.860Z,1.70
2023-01-13T03:31:45.791Z,1.80
2023-01-13T03:32:45.760Z,2.20
2023-01-13T03:33:45.685Z,1.90
2023-01-13T03:34:45.631Z,2.20
2023-01-13T03:35:45.640Z,1.90
2023-01-13T03:36:45.560Z,2.10
2023-01-13T03:37:45.529Z,2.40
2023-01-13T03:38:45.440Z,2.10
2023-01-13T03:39:45.405Z,1.90
2023-01-13T03:40:45.372Z,2.00
2023-01-13T03:41:45.314Z,1.80
2023-01-13T03:42:45.272Z,2.20
2023-01-13T03:43:45.212Z,1.90
2023-01-13T03:44:45.150Z,1.90
2023-01-13T03:45:45.161Z,2.10
2023-01-13T03:46:45.054Z,2.10
2023-01-13T03:47:45.022Z,2.00
2023-01-13T03:48:44.945Z,1.90
2023-01-13T03:49:44.914Z,1.90
2023-01-13T03:50:44.862Z,2.20
2023-01-13T03:51:44.818Z,1.80
2023-01-13T03:52:44.749Z,1.80
2023-01-13T03:53:44.716Z,2.10
2023-01-13T03:54:44.636Z,2.10
2023-01-13T03:55:44.594Z,1.80
2023-01-13T03:56:44.527Z,2.00
2023-01-13T03:57:44.511Z,1.80
2023-01-13T03:58:44.443Z,2.20
2023-01-13T03:59:44.403Z,1.90
2023-01-13T04:00:44.333Z,2.60
2023-01-13T04:01:44.402Z,2.10
2023-01-13T04:02:44.218Z,2.10
2023-01-13T04:03:44.208Z,2.20
2023-01-13T04:04:44.125Z,2.10
2023-01-13T04:05:44.050Z,2.10
2023-01-13T04:06:44.000Z,2.20
2023-01-13T04:07:43.958Z,2.60
2023-01-13T04:08:43.917Z,2.20
2023-01-13T04:09:43.873Z,2.60
2023-01-13T04:10:43.791Z,2.10
2023-01-13T04:11:43.758Z,2.20
2023-01-13T04:12:43.671Z,2.40
2023-01-13T04:13:43.620Z,2.20
2023-01-13T04:14:43.571Z,2.20
2023-01-13T04:15:43.555Z,2.40
2023-01-13T04:16:43.472Z,2.80
2023-01-13T04:17:43.425Z,2.10
2023-01-13T04:18:43.364Z,2.70
2023-01-13T04:19:43.322Z,2.30
2023-01-13T04:20:43.254Z,2.40
2023-01-13T04:21:43.219Z,2.50
2023-01-13T04:22:43.153Z,2.40
2023-01-13T04:23:43.100Z,2.20
2023-01-13T04:24:43.033Z,2.60
2023-01-13T04:25:42.972Z,2.70
2023-01-13T04:26:42.941Z,2.50
2023-01-13T04:27:42.868Z,2.50
2023-01-13T04:28:42.809Z,2.60
2023-01-13T04:29:42.761Z,2.60
2023-01-13T04:30:42.743Z,2.90
2023-01-13T04:31:42.636Z,2.60
2023-01-13T04:32:42.575Z,2.90
2023-01-13T04:33:42.536Z,2.80
2023-01-13T04:34:42.480Z,3.20
2023-01-13T04:35:42.441Z,3.40
2023-01-13T04:36:42.357Z,3.50
2023-01-13T04:37:42.317Z,3.30
2023-01-13T04:38:42.317Z,3.30
2023-01-13T04:39:42.223Z,3.30
2023-01-13T04:40:42.180Z,3.20
2023-01-13T04:41:42.107Z,3.40
2023-01-13T04:42:42.057Z,3.20
2023-01-13T04:43:41.995Z,3.20
2023-01-13T04:44:41.937Z,3.70
2023-01-13T04:45:41.917Z,3.40
2023-01-13T04:46:41.839Z,3.50
2023-01-13T04:47:41.807Z,3.70
2023-01-13T04:48:41.738Z,3.70
2023-01-13T04:49:41.659Z,3.60
2023-01-13T04:50:41.658Z,3.60
2023-01-13T04:51:41.561Z,3.40
2023-01-13T04:52:41.522Z,4.20
2023-01-13T04:53:41.462Z,3.80
2023-01-13T04:54:41.412Z,3.80
2023-01-13T04:55:41.369Z,4.10
2023-01-13T04:56:41.302Z,3.90
2023-01-13T04:57:41.241Z,4.10
2023-01-13T04:58:41.203Z,4.10
2023-01-13T04:59:41.151Z,4.10
2023-01-13T05:00:41.110Z,4.00
2023-01-13T05:01:41.193Z,4.00
2023-01-13T05:02:41.029Z,4.80
2023-01-13T05:03:40.943Z,3.90
2023-01-13T05:04:40.945Z,3.90
2023-01-13T05:05:40.842Z,3.90
2023-01-13T05:06:40.808Z,4.00
2023-01-13T05:07:40.747Z,4.40
2023-01-13T05:08:40.714Z,4.00
2023-01-13T05:09:40.634Z,4.20
2023-01-13T05:10:40.573Z,4.30
2023-01-13T05:11:40.535Z,4.30
2023-01-13T05:12:40.494Z,4.50
2023-01-13T05:13:40.414Z,5.10
2023-01-13T05:14:40.363Z,6.10
2023-01-13T05:15:40.363Z,5.30
2023-01-13T05:16:40.275Z,4.90
2023-01-13T05:17:40.224Z,4.70
2023-01-13T05:18:40.258Z,5.20
2023-01-13T05:19:40.078Z,4.80
2023-01-13T05:20:40.088Z,5.00
2023-01-13T05:21:39.982Z,4.90
2023-01-13T05:22:39.940Z,4.90
2023-01-13T05:23:40.016Z,4.90
2023-01-13T05:24:39.820Z,5.20
2023-01-13T05:25:39.780Z,5.00
2023-01-13T05:26:39.727Z,5.00
2023-01-13T05:27:39.665Z,5.00
2023-01-13T05:28:39.623Z,5.20
2023-01-13T05:29:39.549Z,4.80
2023-01-13T05:30:39.509Z,5.20
2023-01-13T05:31:39.448Z,5.10
2023-01-13T05:32:39.447Z,5.00
2023-01-13T05:33:39.377Z,4.90
2023-01-13T05:34:39.304Z,5.10
2023-01-13T05:35:39.376Z,5.10
2023-01-13T05:36:39.192Z,5.10
2023-01-13T05:37:39.128Z,5.20
2023-01-13T05:38:39.121Z,5.00
2023-01-13T05:39:39.040Z,5.00
2023-01-13T05:40:38.989Z,4.70
2023-01-13T05:41:38.928Z,5.50
2023-01-13T05:42:38.879Z,4.70
2023-01-13T05:43:38.842Z,4.90
2023-01-13T05:44:38.784Z,4.80
2023-01-13T05:45:38.781Z,4.90
2023-01-13T05:46:38.731Z,4.40
2023-01-13T05:47:38.611Z,4.90
2023-01-13T05:48:38.610Z,4.90
2023-01-13T05:49:39.201Z,4.60
2023-01-13T05:50:38.465Z,4.80
2023-01-13T05:51:38.411Z,4.60
2023-01-13T05:52:38.409Z,4.50
2023-01-13T05:53:38.346Z,4.30
2023-01-13T05:54:38.288Z,4.40
2023-01-13T05:55:38.223Z,4.20
2023-01-13T05:56:38.175Z,5.20
2023-01-13T05:57:38.143Z,4.90
2023-01-13T05:58:38.088Z,4.80
2023-01-13T05:59:38.031Z,5.00
2023-01-13T06:00:38.513Z,4.50
2023-01-13T06:01:37.928Z,4.80
2023-01-13T06:02:37.967Z,4.50
2023-01-13T06:03:37.827Z,4.70
2023-01-13T06:04:37.931Z,4.40
2023-01-13T06:05:37.736Z,4.30
2023-01-13T06:06:37.698Z,6.30
2023-01-13T06:07:37.650Z,4.40
2023-01-13T06:08:39.536Z,5.40
2023-01-13T06:09:37.556Z,4.00
2023-01-13T06:10:37.533Z,5.20
2023-01-13T06:11:37.447Z,4.00
2023-01-13T06:12:37.378Z,4.30
2023-01-13T06:13:37.367Z,4.30
2023-01-13T06:14:37.305Z,4.20
2023-01-13T06:15:37.233Z,4.20
2023-01-13T06:16:37.238Z,4.50
2023-01-13T06:17:37.144Z,4.20
2023-01-13T06:18:37.083Z,4.50
2023-01-13T06:19:37.032Z,4.70
2023-01-13T06:20:36.991Z,4.60
2023-01-13T06:21:36.919Z,4.40
2023-01-13T06:22:36.876Z,4.50
2023-01-13T06:23:36.812Z,4.60
2023-01-13T06:24:36.801Z,4.50
2023-01-13T06:25:36.723Z,4.40
2023-01-13T06:26:36.678Z,4.50
2023-01-13T06:27:36.590Z,4.70
2023-01-13T06:28:36.559Z,4.60
2023-01-13T06:29:36.502Z,5.00
2023-01-13T06:30:36.465Z,4.60
2023-01-13T06:31:36.426Z,4.70
2023-01-13T06:32:36.363Z,4.90
2023-01-13T06:33:36.316Z,5.40
2023-01-13T06:34:36.262Z,5.20
2023-01-13T06:35:36.239Z,4.90
2023-01-13T06:36:36.192Z,5.40
2023-01-13T06:37:36.119Z,4.90
2023-01-13T06:38:36.075Z,5.60
2023-01-13T06:39:36.027Z,5.30
2023-01-13T06:40:35.955Z,5.50
2023-01-13T06:41:35.933Z,5.60
2023-01-13T06:42:35.888Z,5.30
2023-01-13T06:43:35.850Z,6.10
2023-01-13T06:44:35.772Z,5.50
2023-01-13T06:45:35.714Z,5.80
2023-01-13T06:46:35.769Z,6.00
2023-01-13T06:47:35.608Z,6.10
2023-01-13T06:48:35.871Z,6.10
2023-01-13T06:49:35.511Z,6.50
2023-01-13T06:50:35.455Z,5.90
2023-01-13T06:51:35.479Z,5.60
2023-01-13T06:52:35.368Z,6.20
2023-01-13T06:53:35.295Z,5.80
2023-01-13T06:54:35.256Z,5.70
2023-01-13T06:55:35.197Z,5.70
2023-01-13T06:56:35.173Z,6.70
2023-01-13T06:57:35.126Z,6.30
2023-01-13T06:58:35.070Z,5.60
2023-01-13T06:59:35.029Z,6.20
2023-01-13T07:00:34.992Z,6.20
2023-01-13T07:01:35.078Z,5.80
2023-01-13T07:02:34.877Z,7.00
2023-01-13T07:03:34.827Z,8.90
2023-01-13T07:04:34.754Z,6.50
2023-01-13T07:05:34.734Z,5.60
2023-01-13T07:06:34.650Z,6.00
2023-01-13T07:07:34.633Z,5.60
2023-01-13T07:08:34.580Z,5.80
2023-01-13T07:09:34.545Z,5.70
2023-01-13T07:10:34.476Z,5.90
2023-01-13T07:11:34.401Z,5.50
2023-01-13T07:12:34.383Z,5.90
2023-01-13T07:13:34.302Z,6.60
2023-01-13T07:14:34.267Z,5.80
2023-01-13T07:15:34.222Z,5.80
2023-01-13T07:16:34.231Z,5.60
2023-01-13T07:17:34.121Z,5.70
2023-01-13T07:18:34.080Z,5.90
2023-01-13T07:19:34.027Z,5.40
2023-01-13T07:20:33.981Z,5.40
2023-01-13T07:21:33.922Z,5.20
2023-01-13T07:22:34.002Z,6.40
2023-01-13T07:23:33.803Z,5.90
2023-01-13T07:24:33.768Z,6.10
2023-01-13T07:25:33.724Z,5.40
2023-01-13T07:26:33.667Z,5.80
2023-01-13T07:27:33.635Z,5.80
2023-01-13T07:28:33.632Z,6.10
2023-01-13T07:29:33.553Z,5.40
2023-01-13T07:30:33.514Z,5.60
2023-01-13T07:31:33.487Z,6.10
2023-01-13T07:32:33.439Z,6.00
2023-01-13T07:33:33.478Z,5.70
2023-01-13T07:34:33.307Z,6.20
2023-01-13T07:35:33.242Z,5.60
2023-01-13T07:36:33.196Z,5.70
2023-01-13T07:37:33.124Z,5.90
2023-01-13T07:38:33.117Z,6.10
2023-01-13T07:39:33.024Z,5.50
2023-01-13T07:40:32.986Z,5.90
2023-01-13T07:41:32.936Z,6.10
2023-01-13T07:42:32.903Z,5.60
2023-01-13T07:43:32.856Z,5.10
2023-01-13T07:44:32.808Z,4.90
2023-01-13T07:45:32.797Z,4.80
2023-01-13T07:46:32.694Z,5.00
2023-01-13T07:47:32.639Z,5.00
2023-01-13T07:48:32.592Z,5.50
2023-01-13T07:49:32.549Z,5.20
2023-01-13T07:50:32.476Z,4.70
2023-01-13T07:51:32.504Z,4.80
2023-01-13T07:52:32.396Z,4.80
2023-01-13T07:53:32.320Z,4.20
2023-01-13T07:54:40.653Z,4.40
2023-01-13T07:55:33.201Z,4.60
2023-01-13T07:56:32.132Z,4.30
2023-01-13T07:57:32.081Z,4.20
2023-01-13T07:58:32.046Z,4.30
2023-01-13T07:59:31.993Z,4.30
2023-01-13T08:00:31.927Z,4.60
2023-01-13T08:01:32.144Z,4.40
2023-01-13T08:02:31.968Z,4.20
2023-01-13T08:03:31.766Z,4.00
2023-01-13T08:04:31.734Z,4.10
2023-01-13T08:05:31.666Z,4.60
2023-01-13T08:06:31.630Z,4.70
2023-01-13T08:07:31.571Z,4.10
2023-01-13T08:08:31.528Z,3.60
2023-01-13T08:09:31.499Z,3.70
2023-01-13T08:10:31.434Z,5.30
2023-01-13T08:11:31.393Z,4.60
2023-01-13T08:12:31.355Z,4.10
2023-01-13T08:13:31.287Z,5.30
2023-01-13T08:14:31.236Z,5.00
2023-01-13T08:15:31.186Z,4.50
2023-01-13T08:16:31.177Z,4.70
2023-01-13T08:17:31.087Z,6.40
2023-01-13T08:18:31.048Z,5.40
2023-01-13T08:19:31.004Z,4.40
2023-01-13T08:20:30.972Z,4.60
2023-01-13T08:21:30.904Z,3.90
2023-01-13T08:22:30.871Z,4.20
2023-01-13T08:23:30.799Z,5.30
2023-01-13T08:24:30.739Z,3.90
2023-01-13T08:25:30.700Z,4.80
2023-01-13T08:26:30.648Z,4.10
2023-01-13T08:27:30.609Z,3.60
2023-01-13T08:28:30.565Z,4.70
2023-01-13T08:29:30.519Z,4.40
2023-01-13T08:30:30.532Z,4.30
2023-01-13T08:31:30.412Z,3.50
2023-01-13T08:32:30.359Z,3.40
2023-01-13T08:33:30.291Z,3.50
2023-01-13T08:34:30.247Z,3.70
2023-01-13T08:35:30.202Z,3.80
2023-01-13T08:36:30.170Z,3.40
2023-01-13T08:37:30.572Z,3.80
2023-01-13T08:38:30.032Z,4.40
2023-01-13T08:39:29.974Z,3.70
2023-01-13T08:40:29.934Z,4.80
2023-01-13T08:41:29.854Z,3.70
2023-01-13T08:42:29.806Z,3.30
2023-01-13T08:43:29.805Z,4.00
2023-01-13T08:44:29.714Z,4.70
2023-01-13T08:45:29.643Z,4.00
2023-01-13T08:46:29.650Z,3.80
2023-01-13T08:47:29.546Z,3.80
2023-01-13T08:48:31.471Z,3.50
2023-01-13T08:49:29.434Z,3.70
2023-01-13T08:50:29.490Z,3.20
2023-01-13T08:51:29.323Z,3.30
2023-01-13T08:52:29.284Z,3.30
2023-01-13T08:53:29.231Z,3.40
2023-01-13T08:54:29.183Z,4.00
2023-01-13T08:55:29.133Z,3.30
2023-01-13T08:56:29.064Z,3.60
2023-01-13T08:57:29.042Z,3.20
2023-01-13T08:58:28.956Z,3.30
2023-01-13T08:59:28.906Z,3.70
2023-01-13T09:00:28.849Z,4.00
2023-01-13T09:01:28.886Z,3.30
2023-01-13T09:02:28.804Z,3.00
2023-01-13T09:03:28.670Z,3.30
2023-01-13T09:04:28.692Z,3.20
2023-01-13T09:05:28.572Z,3.20
2023-01-13T09:06:28.552Z,3.30
2023-01-13T09:07:28.460Z,2.90
2023-01-13T09:08:28.396Z,3.20
2023-01-13T09:09:28.347Z,2.70
2023-01-13T09:10:28.361Z,3.10
2023-01-13T09:11:28.249Z,2.90
2023-01-13T09:12:28.213Z,2.70
2023-01-13T09:13:28.142Z,2.80
2023-01-13T09:14:28.085Z,2.60
2023-01-13T09:15:28.068Z,2.20
2023-01-13T09:16:27.997Z,2.30
2023-01-13T09:17:27.941Z,2.50
2023-01-13T09:18:27.874Z,3.00
2023-01-13T09:19:27.847Z,2.70
2023-01-13T09:20:27.772Z,2.70
2023-01-13T09:21:27.870Z,2.60
2023-01-13T09:22:27.721Z,2.60
2023-01-13T09:23:27.667Z,2.60
2023-01-13T09:24:27.610Z,2.40
2023-01-13T09:25:27.570Z,2.90
2023-01-13T09:26:27.513Z,2.50
2023-01-13T09:27:27.491Z,2.80
2023-01-13T09:28:27.431Z,2.50
2023-01-13T09:29:27.385Z,3.00
2023-01-13T09:30:27.334Z,3.00
2023-01-13T09:31:27.308Z,3.20
2023-01-13T09:32:27.234Z,2.50
2023-01-13T09:33:27.207Z,2.70
2023-01-13T09:34:27.160Z,3.20
2023-01-13T09:35:27.113Z,3.00
2023-01-13T09:36:27.071Z,3.20
2023-01-13T09:37:27.007Z,2.60
2023-01-13T09:38:27.012Z,2.70
2023-01-13T09:39:26.893Z,2.90
2023-01-13T09:40:26.896Z,3.40
2023-01-13T09:41:26.795Z,2.80
2023-01-13T09:42:26.907Z,3.00
2023-01-13T09:43:26.743Z,3.00
2023-01-13T09:44:26.665Z,3.10
2023-01-13T09:45:26.674Z,3.10
2023-01-13T09:46:26.631Z,3.20
2023-01-13T09:47:26.518Z,3.50
2023-01-13T09:48:26.522Z,3.00
2023-01-13T09:49:26.421Z,3.10
2023-01-13T09:50:26.400Z,3.30
2023-01-13T09:51:26.395Z,3.60
2023-01-13T09:52:27.169Z,3.80
2023-01-13T09:53:26.248Z,3.30
2023-01-13T09:54:26.187Z,3.60
2023-01-13T09:55:26.174Z,3.40
2023-01-13T09:56:26.097Z,2.50
2023-01-13T09:57:26.071Z,1.90
2023-01-13T09:58:26.017Z,1.10
2023-01-13T09:59:25.991Z,1.20
2023-01-13T10:00:25.921Z,1.20
2023-01-13T10:01:25.961Z,1.10
2023-01-13T10:02:25.833Z,0.90
2023-01-13T10:03:25.837Z,1.20
2023-01-13T10:04:25.812Z,0.90
2023-01-13T10:05:25.707Z,0.70
2023-01-13T10:06:25.693Z,0.90
2023-01-13T10:07:27.282Z,0.80
2023-01-13T10:08:25.590Z,0.80
2023-01-13T10:09:25.576Z,1.00
2023-01-13T10:10:25.518Z,0.80
2023-01-13T10:11:25.485Z,0.70
2023-01-13T10:12:25.445Z,0.70
2023-01-13T10:13:25.408Z,1.00
2023-01-13T10:14:25.375Z,0.80
2023-01-13T10:15:25.335Z,0.80
2023-01-13T10:16:25.343Z,0.90
2023-01-13T10:17:25.256Z,1.70
2023-01-13T10:18:25.241Z,1.30
2023-01-13T10:19:25.178Z,1.10
2023-01-13T10:20:25.114Z,0.90
2023-01-13T10:21:25.113Z,1.10
2023-01-13T10:22:25.057Z,0.90
2023-01-13T10:23:25.036Z,0.90
2023-01-13T10:24:24.981Z,1.00
2023-01-13T10:25:24.915Z,1.20
2023-01-13T10:26:24.904Z,1.60
2023-01-13T10:27:24.849Z,1.20
2023-01-13T10:28:24.822Z,1.30
2023-01-13T10:29:24.804Z,1.20
2023-01-13T10:30:24.717Z,1.50
2023-01-13T10:31:24.774Z,1.50
2023-01-13T10:32:24.646Z,1.70
2023-01-13T10:33:26.959Z,1.80
2023-01-13T10:34:24.576Z,1.60
2023-01-13T10:35:24.561Z,1.60
2023-01-13T10:36:24.505Z,2.90
2023-01-13T10:37:24.469Z,1.40
2023-01-13T10:38:24.450Z,2.40
2023-01-13T10:39:24.390Z,1.60
2023-01-13T10:40:24.350Z,1.90
2023-01-13T10:41:24.337Z,1.90
2023-01-13T10:42:24.281Z,3.60
2023-01-13T10:43:24.211Z,1.80
2023-01-13T10:44:24.212Z,2.40
2023-01-13T10:45:24.142Z,2.50
2023-01-13T10:46:24.158Z,3.20
2023-01-13T10:47:24.031Z,3.70
2023-01-13T10:48:23.994Z,2.00
2023-01-13T10:49:23.945Z,2.20
2023-01-13T10:50:23.901Z,2.90
2023-01-13T10:51:23.876Z,2.00
2023-01-13T10:52:23.889Z,2.50
2023-01-13T10:53:23.793Z,2.70
2023-01-13T10:54:23.730Z,2.60
2023-01-13T10:55:23.779Z,3.50
2023-01-13T10:56:23.657Z,3.40
2023-01-13T10:57:23.611Z,3.30
2023-01-13T10:58:23.556Z,4.30
2023-01-13T10:59:23.541Z,3.20
2023-01-13T11:00:23.485Z,2.60
2023-01-13T11:01:23.588Z,4.60
2023-01-13T11:02:26.508Z,3.00
2023-01-13T11:03:23.322Z,2.90
2023-01-13T11:04:23.337Z,2.50
2023-01-13T11:05:23.260Z,3.50
2023-01-13T11:06:23.227Z,3.60
2023-01-13T11:07:23.166Z,6.80
2023-01-13T11:08:23.106Z,7.50
2023-01-13T11:09:23.081Z,14.50
2023-01-13T11:10:23.034Z,14.30
2023-01-13T11:11:23.008Z,19.20
2023-01-13T11:12:22.956Z,6.80
2023-01-13T11:13:23.263Z,4.00
2023-01-13T11:14:22.861Z,4.40
2023-01-13T11:15:22.830Z,3.60
2023-01-13T11:16:22.819Z,2.90
2023-01-13T11:17:22.756Z,2.80
2023-01-13T11:18:22.689Z,3.80
2023-01-13T11:19:22.660Z,5.30
2023-01-13T11:20:22.608Z,8.00
2023-01-13T11:21:22.567Z,4.20
2023-01-13T11:22:22.517Z,11.10
2023-01-13T11:23:22.507Z,10.70
2023-01-13T11:24:22.450Z,10.20
2023-01-13T11:25:22.400Z,6.90
2023-01-13T11:26:22.393Z,7.00
2023-01-13T11:27:22.354Z,11.70
2023-01-13T11:28:22.251Z,10.20
2023-01-13T11:29:22.240Z,4.90
2023-01-13T11:30:22.184Z,5.50
2023-01-13T11:31:22.187Z,8.40
2023-01-13T11:32:22.091Z,7.70
2023-01-13T11:33:22.084Z,16.20
2023-01-13T11:34:21.991Z,14.80
2023-01-13T11:35:21.972Z,7.80
2023-01-13T11:36:21.912Z,5.30
2023-01-13T11:37:21.889Z,4.30
2023-01-13T11:38:21.821Z,4.80
2023-01-13T11:39:21.775Z,4.60
2023-01-13T11:40:21.743Z,4.90
2023-01-13T11:41:21.696Z,3.30
2023-01-13T11:42:21.733Z,3.20
2023-01-13T11:43:21.615Z,3.20
2023-01-13T11:44:21.593Z,2.90
2023-01-13T11:45:21.512Z,3.00
2023-01-13T11:46:21.491Z,2.60
2023-01-13T11:47:21.433Z,2.60
2023-01-13T11:48:21.379Z,2.70
2023-01-13T11:49:22.415Z,3.30
2023-01-13T11:50:21.359Z,3.40
2023-01-13T11:51:21.250Z,3.90
2023-01-13T11:52:21.245Z,3.40
2023-01-13T11:53:21.170Z,3.00
2023-01-13T11:54:21.117Z,2.80
2023-01-13T11:55:22.693Z,2.30
2023-01-13T11:56:21.022Z,2.60
2023-01-13T11:57:21.026Z,3.00
2023-01-13T11:58:20.941Z,3.20
2023-01-13T11:59:20.898Z,2.50
2023-01-13T12:00:20.844Z,2.60
2023-01-13T12:01:23.171Z,2.30
2023-01-13T12:02:20.837Z,3.40
2023-01-13T12:03:20.762Z,2.80
2023-01-13T12:04:20.660Z,2.80
2023-01-13T12:05:20.609Z,2.40
2023-01-13T12:06:20.557Z,4.00
2023-01-13T12:07:23.048Z,2.50
2023-01-13T12:08:20.454Z,2.30
2023-01-13T12:09:20.440Z,2.50
2023-01-13T12:10:20.363Z,2.40
2023-01-13T12:11:20.336Z,2.30
2023-01-13T12:12:20.278Z,1.90
2023-01-13T12:13:20.240Z,2.20
2023-01-13T12:14:20.202Z,3.10
2023-01-13T12:15:20.156Z,1.80
2023-01-13T12:16:20.102Z,2.20
2023-01-13T12:17:20.079Z,2.90
2023-01-13T12:18:20.025Z,3.10
2023-01-13T12:19:19.955Z,2.90
2023-01-13T12:20:19.929Z,2.20
2023-01-13T12:21:19.877Z,2.60
2023-01-13T12:22:19.832Z,2.40
2023-01-13T12:23:19.808Z,3.30
2023-01-13T12:24:19.718Z,3.50
2023-01-13T12:25:19.683Z,2.80
2023-01-13T12:26:19.660Z,2.90
2023-01-13T12:27:19.593Z,3.60
2023-01-13T12:28:19.611Z,3.00
2023-01-13T12:29:19.521Z,3.60
2023-01-13T12:30:19.464Z,3.30
2023-01-13T12:31:19.495Z,3.40
2023-01-13T12:32:19.387Z,3.60
2023-01-13T12:33:19.415Z,3.60
2023-01-13T12:34:19.307Z,2.30
2023-01-13T12:35:19.420Z,2.80
2023-01-13T12:36:19.219Z,3.00
2023-01-13T12:37:19.182Z,3.00
2023-01-13T12:38:19.134Z,2.50
2023-01-13T12:39:19.107Z,2.80
2023-01-13T12:40:19.031Z,2.70
2023-01-13T12:41:19.006Z,2.50
2023-01-13T12:42:18.947Z,3.00
2023-01-13T12:43:18.886Z,3.40
2023-01-13T12:44:18.851Z,3.10
2023-01-13T12:45:18.848Z,2.60
2023-01-13T12:46:18.756Z,3.00
2023-01-13T12:47:18.728Z,3.10
2023-01-13T12:48:18.635Z,3.90
2023-01-13T12:49:18.629Z,3.60
2023-01-13T12:50:18.562Z,3.30
2023-01-13T12:51:18.520Z,3.20
2023-01-13T12:52:18.503Z,2.90
2023-01-13T12:53:18.432Z,3.80
2023-01-13T12:54:18.377Z,3.30
2023-01-13T12:55:18.331Z,1.80
2023-01-13T12:56:18.281Z,2.20
2023-01-13T12:57:18.286Z,2.30
2023-01-13T12:58:18.190Z,3.70
2023-01-13T12:59:18.246Z,3.80
2023-01-13T13:00:18.208Z,2.90
2023-01-13T13:01:18.055Z,2.40
2023-01-13T13:02:18.212Z,2.10
2023-01-13T13:03:19.521Z,2.60
2023-01-13T13:04:17.885Z,3.00
2023-01-13T13:05:17.862Z,2.70
2023-01-13T13:06:17.796Z,2.70
2023-01-13T13:07:17.730Z,3.70
2023-01-13T13:08:17.679Z,2.90
2023-01-13T13:09:17.632Z,2.40
2023-01-13T13:10:17.597Z,1.90
2023-01-13T13:11:17.550Z,2.00
2023-01-13T13:12:17.479Z,3.20
2023-01-13T13:13:17.436Z,4.30
2023-01-13T13:14:17.473Z,3.20
2023-01-13T13:15:17.431Z,3.30
2023-01-13T13:16:17.292Z,2.40
2023-01-13T13:17:17.331Z,3.50
2023-01-13T13:18:17.209Z,3.00